createdAt,value
2023-05-12T00:02:26.370Z,11.67
2023-05-12T00:04:59.788Z,11.57
2023-05-12T00:07:33.028Z,11.68
2023-05-12T00:10:07.192Z,11.82
2023-05-12T00:12:40.167Z,11.87
2023-05-12T00:15:13.083Z,11.92
2023-05-12T00:17:47.589Z,11.80
2023-05-12T00:20:20.909Z,11.83
2023-05-12T00:22:53.983Z,11.56
2023-05-12T00:25:27.154Z,11.64
2023-05-12T00:28:00.220Z,11.86
2023-05-12T00:30:33.335Z,11.93
2023-05-12T00:33:07.855Z,11.76
2023-05-12T00:35:40.863Z,11.98
2023-05-12T00:38:14.240Z,11.91
2023-05-12T00:40:47.227Z,11.71
2023-05-12T00:43:20.538Z,11.91
2023-05-12T00:45:53.952Z,11.84
2023-05-12T00:48:28.493Z,11.84
2023-05-12T00:51:02.056Z,11.82
2023-05-12T00:53:47.598Z,11.82
2023-05-12T00:56:21.989Z,11.68
2023-05-12T00:58:55.141Z,11.81
2023-05-12T01:01:28.484Z,11.89
2023-05-12T01:04:03.647Z,11.87
2023-05-12T01:06:49.414Z,11.81
2023-05-12T01:09:22.963Z,11.71
2023-05-12T01:11:56.266Z,11.87
2023-05-12T01:14:29.354Z,11.77
2023-05-12T01:17:08.923Z,11.64
2023-05-12T01:19:49.199Z,11.77
2023-05-12T01:22:22.458Z,11.78
2023-05-12T01:24:58.688Z,11.94
2023-05-12T01:27:35.200Z,11.63
2023-05-12T01:30:11.119Z,11.75
2023-05-12T01:32:44.879Z,11.81
2023-05-12T01:35:18.116Z,11.74
2023-05-12T01:37:57.532Z,11.69
2023-05-12T01:40:30.818Z,11.41
2023-05-12T01:43:05.654Z,11.64
2023-05-12T01:45:39.275Z,11.49
2023-05-12T01:48:12.301Z,11.69
2023-05-12T01:50:45.367Z,11.84
2023-05-12T01:53:22.918Z,11.85
2023-05-12T01:55:55.821Z,11.51
2023-05-12T01:58:32.742Z,11.73
2023-05-12T02:01:06.290Z,11.68
2023-05-12T02:03:39.735Z,11.69
2023-05-12T02:06:17.986Z,11.68
2023-05-12T02:08:51.028Z,11.66
2023-05-12T02:11:24.009Z,11.67
2023-05-12T02:13:58.951Z,11.47
2023-05-12T02:16:32.336Z,11.65
2023-05-12T02:19:05.479Z,11.66
2023-05-12T02:21:38.953Z,11.55
2023-05-12T02:24:13.622Z,11.68
2023-05-12T02:26:48.019Z,11.67
2023-05-12T02:29:23.130Z,11.70
2023-05-12T02:31:56.158Z,11.51
2023-05-12T02:34:29.335Z,11.68
2023-05-12T02:37:03.011Z,11.72
2023-05-12T02:39:36.412Z,11.73
2023-05-12T02:42:09.400Z,11.64
2023-05-12T02:44:43.756Z,11.66
2023-05-12T02:47:16.799Z,11.55
2023-05-12T02:49:50.364Z,11.78
2023-05-12T02:52:23.399Z,11.66
2023-05-12T02:54:57.507Z,11.45
2023-05-12T02:57:34.062Z,11.53
2023-05-12T03:00:09.935Z,11.53
2023-05-12T03:02:45.320Z,11.61
2023-05-12T03:05:18.695Z,11.60
2023-05-12T03:07:51.735Z,11.53
2023-05-12T03:10:24.668Z,11.62
2023-05-12T03:12:59.891Z,11.50
2023-05-12T03:15:34.719Z,11.43
2023-05-12T03:18:07.786Z,11.67
2023-05-12T03:20:40.927Z,11.38
2023-05-12T03:23:13.913Z,11.47
2023-05-12T03:25:49.251Z,11.69
2023-05-12T03:28:23.330Z,11.49
2023-05-12T03:30:58.045Z,11.60
2023-05-12T03:33:31.562Z,11.65
2023-05-12T03:36:04.860Z,11.75
2023-05-12T03:38:38.124Z,11.69
2023-05-12T03:41:11.670Z,11.74
2023-05-12T03:43:45.256Z,11.78
2023-05-12T03:46:19.860Z,11.76
2023-05-12T03:48:52.889Z,11.68
2023-05-12T03:51:25.685Z,11.79
2023-05-12T03:53:58.563Z,11.74
2023-05-12T03:56:31.580Z,11.71
2023-05-12T03:59:04.459Z,11.60
2023-05-12T04:01:38.818Z,11.51
2023-05-12T04:04:11.743Z,11.49
2023-05-12T04:06:44.537Z,11.51
2023-05-12T04:09:17.714Z,11.38
2023-05-12T04:11:51.415Z,11.48
2023-05-12T04:14:35.184Z,11.61
2023-05-12T04:17:18.687Z,11.56
2023-05-12T04:19:52.764Z,11.57
2023-05-12T04:22:25.941Z,11.66
2023-05-12T04:24:59.463Z,11.55
2023-05-12T04:27:32.657Z,11.54
2023-05-12T04:30:07.587Z,11.58
2023-05-12T04:32:44.040Z,11.76
2023-05-12T04:35:17.771Z,11.63
2023-05-12T04:37:50.994Z,11.54
2023-05-12T04:40:24.203Z,11.71
2023-05-12T04:42:57.888Z,11.70
2023-05-12T04:45:31.661Z,11.63
2023-05-12T04:48:06.520Z,11.54
2023-05-12T04:50:39.412Z,11.64
2023-05-12T04:53:13.339Z,11.40
2023-05-12T04:55:47.238Z,11.53
2023-05-12T04:58:21.149Z,11.60
2023-05-12T05:00:54.463Z,11.77
2023-05-12T05:03:29.325Z,11.86
2023-05-12T05:06:02.139Z,11.78
2023-05-12T05:08:34.929Z,11.76
2023-05-12T05:11:09.187Z,11.67
2023-05-12T05:13:41.995Z,11.75
2023-05-12T05:16:14.900Z,11.93
2023-05-12T05:18:49.572Z,11.88
2023-05-12T05:21:22.545Z,11.79
2023-05-12T05:23:55.415Z,12.00
2023-05-12T05:26:29.016Z,11.81
2023-05-12T05:29:02.250Z,11.86
2023-05-12T05:31:35.048Z,11.92
2023-05-12T05:34:09.937Z,11.89
2023-05-12T05:36:43.248Z,11.91
2023-05-12T05:39:16.123Z,11.76
2023-05-12T05:41:49.177Z,11.77
2023-05-12T05:44:22.755Z,11.82
2023-05-12T05:46:55.669Z,11.99
2023-05-12T05:49:32.308Z,11.83
2023-05-12T05:52:07.624Z,11.98
2023-05-12T05:54:41.050Z,12.29
2023-05-12T05:57:14.306Z,12.25
2023-05-12T05:59:47.770Z,12.27
2023-05-12T06:02:23.377Z,12.30
2023-05-12T06:04:58.048Z,11.93
2023-05-12T06:07:32.082Z,12.21
2023-05-12T06:10:06.250Z,12.11
2023-05-12T06:12:40.954Z,12.16
2023-05-12T06:15:14.396Z,12.39
2023-05-12T06:17:48.197Z,12.54
2023-05-12T06:20:23.459Z,12.26
2023-05-12T06:22:57.031Z,12.53
2023-05-12T06:25:30.277Z,12.68
2023-05-12T06:28:08.784Z,12.76
2023-05-12T06:30:41.864Z,12.90
2023-05-12T06:33:14.815Z,12.87
2023-05-12T06:35:49.150Z,13.05
2023-05-12T06:38:22.114Z,13.13
2023-05-12T06:40:55.001Z,13.07
2023-05-12T06:43:27.896Z,13.01
2023-05-12T06:46:02.052Z,13.09
2023-05-12T06:48:34.872Z,13.18
2023-05-12T06:51:09.429Z,13.18
2023-05-12T06:53:42.384Z,13.01
2023-05-12T06:56:17.052Z,13.29
2023-05-12T06:58:49.970Z,12.94
2023-05-12T07:01:23.007Z,13.06
2023-05-12T07:03:56.224Z,13.15
2023-05-12T07:06:31.604Z,13.21
2023-05-12T07:09:04.675Z,13.16
2023-05-12T07:11:37.571Z,13.06
2023-05-12T07:14:10.447Z,13.09
2023-05-12T07:16:43.310Z,12.97
2023-05-12T07:19:16.138Z,13.39
2023-05-12T07:21:50.363Z,13.37
2023-05-12T07:24:23.317Z,13.05
2023-05-12T07:26:56.718Z,13.47
2023-05-12T07:29:29.576Z,13.31
2023-05-12T07:32:02.422Z,13.53
2023-05-12T07:34:35.287Z,13.65
2023-05-12T07:37:09.456Z,13.73
2023-05-12T07:39:42.229Z,13.78
2023-05-12T07:42:15.067Z,14.18
2023-05-12T07:44:47.847Z,14.04
2023-05-12T07:47:20.816Z,13.89
2023-05-12T07:49:53.575Z,13.73
2023-05-12T07:52:27.660Z,13.94
2023-05-12T07:55:00.602Z,13.89
2023-05-12T07:57:33.390Z,13.79
2023-05-12T08:00:08.449Z,13.77
2023-05-12T08:02:45.897Z,14.08
2023-05-12T08:05:19.081Z,13.83
2023-05-12T08:07:53.413Z,13.93
2023-05-12T08:10:29.618Z,14.05
2023-05-12T08:13:02.365Z,14.07
2023-05-12T08:15:35.226Z,14.15
2023-05-12T08:18:08.110Z,13.68
2023-05-12T08:20:41.116Z,13.63
2023-05-12T08:23:17.025Z,13.59
2023-05-12T08:25:52.550Z,13.98
2023-05-12T08:28:25.332Z,13.99
2023-05-12T08:30:58.276Z,13.81
2023-05-12T08:33:31.089Z,13.93
2023-05-12T08:36:04.311Z,14.25
2023-05-12T08:38:38.500Z,14.15
2023-05-12T08:41:20.010Z,13.91
2023-05-12T08:43:53.826Z,14.17
2023-05-12T08:46:26.980Z,14.10
2023-05-12T08:49:01.904Z,14.28
2023-05-12T08:51:39.304Z,14.42
2023-05-12T08:54:14.699Z,14.50
2023-05-12T08:59:24.905Z,14.67
2023-05-12T09:02:00.077Z,14.71
2023-05-12T09:04:33.508Z,14.82
2023-05-12T09:07:07.426Z,14.63
2023-05-12T09:09:45.133Z,14.66
2023-05-12T09:12:21.399Z,14.60
2023-05-12T09:15:04.705Z,14.61
2023-05-12T09:17:37.715Z,14.97
2023-05-12T09:20:23.804Z,14.92
2023-05-12T09:23:16.266Z,14.92
2023-05-12T09:26:01.176Z,14.86
2023-05-12T09:28:38.576Z,15.18
2023-05-12T09:31:19.023Z,15.08
2023-05-12T09:33:52.957Z,15.14
2023-05-12T09:36:26.655Z,15.01
2023-05-12T09:39:00.553Z,15.04
2023-05-12T09:41:36.337Z,15.17
2023-05-12T09:44:10.592Z,15.15
2023-05-12T09:46:43.437Z,14.90
2023-05-12T09:49:19.958Z,15.01
2023-05-12T09:51:53.374Z,15.49
2023-05-12T09:54:28.364Z,15.51
2023-05-12T09:57:05.279Z,15.18
2023-05-12T09:59:39.082Z,15.40
2023-05-12T10:02:16.470Z,15.56
2023-05-12T10:04:53.964Z,15.35
2023-05-12T10:07:29.185Z,15.46
2023-05-12T10:10:05.723Z,15.38
2023-05-12T10:12:40.845Z,15.40
2023-05-12T10:15:14.838Z,15.45
2023-05-12T10:17:49.899Z,15.45
2023-05-12T10:20:25.550Z,15.18
2023-05-12T10:23:00.337Z,15.65
2023-05-12T10:25:34.086Z,15.52
2023-05-12T10:28:09.566Z,15.60
2023-05-12T10:30:43.661Z,15.27
2023-05-12T10:33:16.524Z,15.30
2023-05-12T10:35:50.302Z,15.60
2023-05-12T10:38:23.546Z,15.73
2023-05-12T10:41:01.316Z,15.62
2023-05-12T10:43:41.997Z,15.82
2023-05-12T10:46:21.009Z,15.87
2023-05-12T10:48:56.642Z,15.54
2023-05-12T10:51:31.196Z,15.37
2023-05-12T10:54:05.938Z,15.86
2023-05-12T10:56:44.908Z,16.02
2023-05-12T11:00:29.267Z,16.20
2023-05-12T11:03:17.395Z,15.89
2023-05-12T11:06:01.142Z,15.51
2023-05-12T11:08:35.800Z,15.39
2023-05-12T11:12:12.474Z,15.42
2023-05-12T11:14:47.138Z,15.64
2023-05-12T11:17:20.249Z,15.37
2023-05-12T11:19:55.090Z,15.14
2023-05-12T11:22:28.232Z,15.45
2023-05-12T11:25:10.705Z,15.13
2023-05-12T11:27:49.770Z,15.45
2023-05-12T11:30:23.130Z,15.58
2023-05-12T11:33:03.155Z,15.14
2023-05-12T11:35:37.688Z,15.16
2023-05-12T11:38:16.631Z,15.53
2023-05-12T11:40:49.619Z,15.67
2023-05-12T11:43:23.096Z,15.40
2023-05-12T11:45:56.469Z,15.61
2023-05-12T11:48:35.010Z,15.89
2023-05-12T11:51:09.241Z,16.37
2023-05-12T11:53:42.488Z,16.45
2023-05-12T11:56:20.071Z,16.20
2023-05-12T11:58:54.062Z,16.10
2023-05-12T12:01:27.031Z,16.35
2023-05-12T12:04:00.167Z,16.23
2023-05-12T12:06:44.777Z,15.98
2023-05-12T12:09:17.607Z,15.92
2023-05-12T12:11:50.701Z,15.61
2023-05-12T12:14:23.587Z,15.41
2023-05-12T12:16:56.431Z,15.63
2023-05-12T12:19:29.768Z,16.48
2023-05-12T12:22:04.100Z,16.83
2023-05-12T12:24:37.015Z,17.22
2023-05-12T12:27:11.504Z,17.81
2023-05-12T12:29:44.428Z,18.03
2023-05-12T12:32:17.684Z,17.36
2023-05-12T12:34:50.557Z,16.50
2023-05-12T12:37:24.725Z,17.33
2023-05-12T12:39:57.511Z,16.92
2023-05-12T12:42:30.259Z,16.61
2023-05-12T12:45:04.145Z,15.94
2023-05-12T12:47:38.846Z,16.10
2023-05-12T12:50:12.343Z,16.41
2023-05-12T12:52:46.578Z,16.67
2023-05-12T12:55:19.898Z,16.59
2023-05-12T12:57:53.103Z,16.01
2023-05-12T13:00:27.004Z,16.48
2023-05-12T13:03:00.557Z,16.29
2023-05-12T13:05:34.047Z,16.14
2023-05-12T13:08:08.488Z,16.35
2023-05-12T13:10:42.011Z,16.70
2023-05-12T13:13:14.998Z,16.49
2023-05-12T13:15:47.793Z,16.56
2023-05-12T13:18:20.984Z,17.25
2023-05-12T13:20:54.392Z,17.79
2023-05-12T13:23:28.552Z,17.58
2023-05-12T13:26:01.501Z,17.30
2023-05-12T13:28:34.301Z,17.33
2023-05-12T13:31:07.378Z,16.71
2023-05-12T13:33:40.526Z,16.28
2023-05-12T13:36:13.586Z,16.26
2023-05-12T13:38:48.109Z,16.09
2023-05-12T13:41:20.954Z,15.88
2023-05-12T13:43:53.816Z,16.18
2023-05-12T13:46:26.854Z,16.34
2023-05-12T13:48:59.814Z,16.33
2023-05-12T13:51:33.049Z,16.48
2023-05-12T13:54:07.179Z,16.63
2023-05-12T13:56:39.888Z,16.29
2023-05-12T13:59:13.884Z,16.21
2023-05-12T14:01:46.941Z,16.06
2023-05-12T14:04:19.693Z,15.76
2023-05-12T14:06:52.890Z,16.09
2023-05-12T14:09:28.386Z,16.45
2023-05-12T14:12:02.830Z,15.75
2023-05-12T14:14:35.662Z,15.96
2023-05-12T14:17:08.480Z,15.66
2023-05-12T14:19:41.513Z,16.01
2023-05-12T14:22:25.419Z,16.22
2023-05-12T14:25:01.712Z,16.39
2023-05-12T14:27:34.626Z,16.43
2023-05-12T14:30:10.766Z,16.14
2023-05-12T14:32:43.798Z,15.95
2023-05-12T14:35:16.826Z,15.94
2023-05-12T14:37:49.708Z,16.23
2023-05-12T14:40:24.902Z,16.20
2023-05-12T14:42:57.718Z,16.04
2023-05-12T14:45:31.839Z,15.54
2023-05-12T14:48:05.313Z,15.58
2023-05-12T14:50:39.287Z,15.84
2023-05-12T14:53:12.369Z,15.48
2023-05-12T14:55:46.831Z,15.49
2023-05-12T14:58:21.662Z,15.65
2023-05-12T15:00:55.366Z,15.45
2023-05-12T15:03:28.479Z,15.43
2023-05-12T15:08:37.205Z,15.13
2023-05-12T15:11:11.495Z,15.09
2023-05-12T15:13:44.327Z,15.00
2023-05-12T15:16:17.194Z,15.06
2023-05-12T15:18:50.352Z,14.92
2023-05-12T15:21:23.512Z,15.12
2023-05-12T15:23:56.638Z,14.93
2023-05-12T15:26:33.988Z,15.03
2023-05-12T15:29:08.006Z,14.88
2023-05-12T15:31:41.236Z,14.95
2023-05-12T15:34:14.189Z,15.16
2023-05-12T15:36:48.988Z,14.96
2023-05-12T15:39:23.414Z,15.14
2023-05-12T15:41:58.955Z,14.89
2023-05-12T15:44:31.894Z,15.16
2023-05-12T15:47:05.372Z,15.17
2023-05-12T15:49:38.217Z,15.54
2023-05-12T15:52:11.477Z,15.32
2023-05-12T15:54:45.022Z,15.40
2023-05-12T15:57:19.165Z,15.51
2023-05-12T15:59:57.114Z,15.67
2023-05-12T16:02:30.011Z,15.92
2023-05-12T16:05:03.490Z,15.96
2023-05-12T16:07:36.599Z,15.60
2023-05-12T16:10:10.417Z,16.04
2023-05-12T16:12:46.537Z,16.14
2023-05-12T16:15:19.894Z,16.17
2023-05-12T16:17:53.454Z,15.96
2023-05-12T16:20:26.350Z,16.41
2023-05-12T16:22:59.481Z,15.78
2023-05-12T16:25:32.505Z,16.38
2023-05-12T16:28:06.785Z,16.09
2023-05-12T16:30:39.531Z,16.38
2023-05-12T16:33:12.831Z,16.57
2023-05-12T16:35:45.681Z,16.33
2023-05-12T16:38:18.597Z,16.63
2023-05-12T16:40:51.398Z,16.14
2023-05-12T16:43:25.808Z,16.19
2023-05-12T16:46:02.047Z,16.12
2023-05-12T16:48:35.277Z,16.10
2023-05-12T16:51:10.209Z,15.98
2023-05-12T16:53:43.040Z,16.00
2023-05-12T16:56:15.805Z,15.70
2023-05-12T16:58:50.055Z,15.44
2023-05-12T17:01:23.520Z,15.67
2023-05-12T17:03:56.508Z,15.58
2023-05-12T17:06:29.585Z,15.64
2023-05-12T17:09:02.763Z,15.94
2023-05-12T17:11:35.580Z,16.14
2023-05-12T17:14:09.846Z,16.00
2023-05-12T17:16:44.605Z,15.91
2023-05-12T17:19:17.428Z,15.91
2023-05-12T17:21:50.337Z,16.09
2023-05-12T17:24:23.235Z,16.13
2023-05-12T17:26:56.014Z,16.29
2023-05-12T17:29:30.465Z,16.00
2023-05-12T17:32:03.519Z,16.16
2023-05-12T17:34:36.972Z,16.22
2023-05-12T17:37:09.920Z,16.13
2023-05-12T17:39:44.343Z,15.94
2023-05-12T17:42:17.399Z,16.25
2023-05-12T17:44:51.861Z,16.22
2023-05-12T17:47:24.857Z,16.02
2023-05-12T17:49:57.914Z,15.81
2023-05-12T17:52:30.842Z,15.90
2023-05-12T17:55:03.697Z,15.50
2023-05-12T17:57:36.547Z,15.56
2023-05-12T18:00:12.188Z,15.66
2023-05-12T18:03:27.444Z,15.40
2023-05-12T18:06:05.956Z,15.63
2023-05-12T18:08:38.876Z,15.52
2023-05-12T18:11:11.689Z,15.59
2023-05-12T18:14:37.925Z,15.65
2023-05-12T18:21:06.597Z,15.55
2023-05-12T18:23:39.680Z,15.54
2023-05-12T18:26:12.482Z,15.41
2023-05-12T18:28:45.294Z,15.33
2023-05-12T18:31:19.531Z,15.25
2023-05-12T18:33:54.178Z,15.14
2023-05-12T18:36:28.207Z,15.06
2023-05-12T18:39:01.045Z,14.99
2023-05-12T18:41:33.858Z,15.02
2023-05-12T18:44:09.133Z,14.82
2023-05-12T18:46:42.128Z,14.65
2023-05-12T18:49:16.590Z,14.75
2023-05-12T18:51:49.511Z,14.73
2023-05-12T18:54:22.276Z,14.68
2023-05-12T18:56:55.304Z,14.59
2023-05-12T18:59:29.023Z,14.55
2023-05-12T19:02:01.913Z,14.42
2023-05-12T19:04:36.108Z,14.42
2023-05-12T19:07:10.270Z,14.27
2023-05-12T19:09:43.246Z,14.20
2023-05-12T19:12:16.105Z,14.08
2023-05-12T19:14:48.958Z,13.96
2023-05-12T19:17:22.212Z,13.89
2023-05-12T19:19:57.840Z,13.74
2023-05-12T19:22:30.635Z,13.63
2023-05-12T19:25:04.243Z,13.44
2023-05-12T19:27:37.187Z,13.35
2023-05-12T19:30:11.625Z,13.23
2023-05-12T19:32:46.067Z,13.22
2023-05-12T19:35:22.595Z,13.16
2023-05-12T19:37:55.770Z,12.97
2023-05-12T19:40:29.046Z,12.79
2023-05-12T19:43:02.182Z,12.74
2023-05-12T19:45:34.988Z,12.59
2023-05-12T19:48:08.632Z,12.57
2023-05-12T19:50:42.826Z,12.46
2023-05-12T19:53:15.617Z,12.37
2023-05-12T19:55:48.485Z,12.41
2023-05-12T19:58:21.561Z,12.29
2023-05-12T20:00:55.511Z,12.28
2023-05-12T20:03:28.463Z,12.26
2023-05-12T20:06:02.862Z,12.14
2023-05-12T20:08:35.919Z,12.14
2023-05-12T20:11:08.949Z,12.06
2023-05-12T20:13:42.039Z,11.89
2023-05-12T20:16:14.920Z,11.87
2023-05-12T20:18:47.810Z,11.77
2023-05-12T20:21:22.596Z,11.83
2023-05-12T20:23:55.392Z,11.72
2023-05-12T20:26:28.385Z,11.66
2023-05-12T20:29:01.316Z,11.46
2023-05-12T20:31:34.582Z,11.41
2023-05-12T20:34:07.377Z,11.41
2023-05-12T20:36:41.690Z,11.49
2023-05-12T20:39:15.234Z,11.46
2023-05-12T20:41:48.178Z,11.18
2023-05-12T20:44:22.490Z,11.20
2023-05-12T20:46:56.008Z,11.13
2023-05-12T20:49:28.810Z,11.16
2023-05-12T20:52:03.269Z,11.12
2023-05-12T20:54:36.114Z,11.07
2023-05-12T20:57:10.268Z,11.01
2023-05-12T20:59:43.212Z,11.02
2023-05-12T21:02:18.390Z,10.99
2023-05-12T21:04:52.021Z,10.92
2023-05-12T21:07:26.342Z,10.80
2023-05-12T21:10:00.203Z,10.47
2023-05-12T21:12:33.389Z,10.64
2023-05-12T21:15:10.426Z,10.63
2023-05-12T21:17:43.336Z,10.38
2023-05-12T21:20:16.282Z,10.46
2023-05-12T21:22:50.485Z,10.47
2023-05-12T21:25:23.317Z,10.23
2023-05-12T21:27:56.182Z,10.36
2023-05-12T21:30:29.002Z,10.37
2023-05-12T21:33:01.870Z,10.26
2023-05-12T21:35:34.786Z,9.98
2023-05-12T21:38:10.118Z,10.18
2023-05-12T21:40:43.226Z,9.96
2023-05-12T21:43:16.098Z,9.94
2023-05-12T21:45:49.437Z,10.03
2023-05-12T21:48:22.702Z,9.99
2023-05-12T21:50:59.627Z,9.88
2023-05-12T21:53:33.860Z,9.90
2023-05-12T21:56:07.719Z,9.79
2023-05-12T21:58:43.977Z,9.68
2023-05-12T22:01:22.430Z,9.78
2023-05-12T22:03:58.777Z,9.68
2023-05-12T22:06:35.613Z,9.64
2023-05-12T22:09:12.383Z,9.53
2023-05-12T22:11:46.082Z,9.59
2023-05-12T22:14:19.173Z,9.64
2023-05-12T22:16:52.434Z,9.59
2023-05-12T22:19:25.517Z,9.47
2023-05-12T22:21:58.849Z,9.42
2023-05-12T22:24:35.654Z,9.38
2023-05-12T22:27:09.106Z,9.38
2023-05-12T22:29:42.327Z,9.41
2023-05-12T22:32:15.638Z,9.41
2023-05-12T22:34:48.937Z,9.41
2023-05-12T22:37:22.473Z,9.23
2023-05-12T22:39:56.997Z,9.11
2023-05-12T22:42:30.158Z,9.17
2023-05-12T22:45:04.885Z,9.29
2023-05-12T22:47:38.122Z,9.29
2023-05-12T22:50:12.068Z,9.28
2023-05-12T22:52:45.254Z,9.01
2023-05-12T22:55:19.578Z,9.10
2023-05-12T22:57:52.647Z,9.07
2023-05-12T23:00:25.740Z,9.02
2023-05-12T23:03:00.137Z,9.02
2023-05-12T23:05:33.354Z,8.82
2023-05-12T23:08:06.472Z,9.02
2023-05-12T23:10:40.910Z,8.89
2023-05-12T23:13:14.033Z,8.80
2023-05-12T23:15:47.400Z,8.93
2023-05-12T23:18:21.152Z,9.06
2023-05-12T23:20:54.177Z,8.68
2023-05-12T23:23:27.199Z,8.74
2023-05-12T23:26:01.846Z,8.96
2023-05-12T23:28:34.968Z,8.75
2023-05-12T23:31:08.231Z,8.76
2023-05-12T23:33:41.571Z,8.78
2023-05-12T23:36:14.950Z,8.68
2023-05-12T23:38:50.906Z,8.60
2023-05-12T23:41:26.074Z,8.56
2023-05-12T23:43:59.252Z,8.48
2023-05-12T23:46:32.668Z,8.56
2023-05-12T23:49:06.413Z,8.70
2023-05-12T23:51:39.747Z,8.41
2023-05-12T23:54:12.885Z,8.40
2023-05-12T23:56:47.566Z,8.36
2023-05-12T23:59:20.773Z,8.28
